Basin City, Washington
Current Conditions -  °F | °C
As of 11:53 PM on Friday 24 Oct 2014 (Local Time) from KPSC Reporting Station
Scattered Clouds Scattered Clouds  
Wind Chill: 50°   Ceiling: Unl
Heat Index: 50°   Visibility: 10mi
Dew Point: 48°   Wind: 13mph
Humidity: 93%   Direction: 320°NW
Pressure: 29.85"   Gusts: NA
Location:  46.5851°N, 119.156°W
Report Text: KPSC 250653Z AUTO 32011KT 10SM SCT020 10/09 A2985 RMK AO2 SLP109 T01000089
Loading
Personal Weather Stations






























Interactive Weather Map
Tropical Storm Tracking
New forecast layout! Learn more

10-Day Weather Forecast

Advertisements
Track Severe Weather on mobile